North Hampton, New Hampshire
Current Conditions -  °F | °C
As of 1:58 PM on Thursday 23 Oct 2014 (Local Time) from KPSM Reporting Station
Drizzle Drizzle  
Wind Chill: 52°   Ceiling: 800
Heat Index: 52°   Visibility: 2.5mi
Dew Point: 49°   Wind: 17mph
Humidity: 91%   Direction: 20°NNE
Pressure: 29.66"   Gusts: 29mph
Location:  42.97°N, 70.83°W
Report Text: KPSM 231758Z 02015G25KT 2 1/2SM -DZ BR OVC008 11/10 A2966 RMK AO2A PK WND 01029/47 SLP048 P0001 60104 T01090095 10113 20095
Loading
Personal Weather Stations






























Interactive Weather Map
Tropical Storm Tracking
New forecast layout! Learn more

10-Day Weather Forecast

Advertisements
Track Severe Weather on mobile